Historique des mesures à Cassis (13260), France
Quotidien Résumé Octobre 23, 2017 Unités:  Métrique    US   Métrique/US
« Précédent (Jour)
Suivant (Jour) »
Quotidien Hebdomadaire Mensuel Annuel Période au choix
  Maximum: Minimum: Moyenne:
Température: TemperatureC °C 12.5 °C 14.1 °C
Point de rosée: DewpointC °C 3.9 °C 4.7 °C
Humidité: Humidity % 44 % 50 %
Vitesse du vent: 0 km/h 19.2 km/h 33.2 km/h
Rafales: 0 km/h - -
Vent:- - South
Pression: PressurehPa hPa 1013.1 hPa -
Précipitations: 0.0 mm    
Historical Graphs
 
 
Mesures pour : Octobre 23, 2017
Heure Temperature Point de rosée Pression Vent Vitesse du vent Rafales Humidité Pluie (par heure) Conditions
TemperatureC °C DewpointC °C PressurehPa hPa Calm     Humidity % HourlyPrecipMM mm SoftwareType W/m2
00:11 13.9 °C 4.5 °C 1017.2 hPa NNW 44.6 km/h 44.6 km/h 53 % 0.0 mm open2300-1.11 W/m2
01:11 13.4 °C 4.8 °C 1017.2 hPa NNE 22 km/h 63.2 km/h 56 % 0.0 mm open2300-1.11 W/m2
02:11 13.2 °C 4.8 °C 1016.5 hPa NW 56.2 km/h 56.2 km/h 57 % 0.0 mm open2300-1.11 W/m2
03:11 12.8 °C 4.4 °C 1015.8 hPa North 36.5 km/h 99.6 km/h 57 % 0.0 mm open2300-1.11 W/m2
04:11 12.8 °C 3.9 °C 1015.8 hPa WNW 50.5 km/h 105.4 km/h 55 % 0.0 mm open2300-1.11 W/m2
06:11 12.8 °C 4.2 °C 1016.1 hPa NW 44.1 km/h 44.1 km/h 56 % 0.0 mm open2300-1.11 W/m2
07:11 12.8 °C 4.4 °C 1015.8 hPa NNE 24.3 km/h 38.8 km/h 57 % 0.0 mm open2300-1.11 W/m2
08:11 12.5 °C 4.9 °C 1016.1 hPa North 37.5 km/h 53.3 km/h 60 % 0.0 mm open2300-1.11 W/m2
09:11 12.6 °C 5.1 °C 1016.1 hPa NNE 30.1 km/h 30.1 km/h 60 % 0.0 mm open2300-1.11 W/m2
10:11 13.2 °C 5.1 °C 1016.5 hPa NNW 21.6 km/h 45.9 km/h 58 % 0.0 mm open2300-1.11 W/m2
11:11 14.3 °C 5.1 °C 1016.1 hPa North 27.2 km/h 51 km/h 54 % 0.0 mm open2300-1.11 W/m2
13:11 16.9 °C 5.1 °C 1015.5 hPa NNW 19.2 km/h 31.9 km/h 46 % 0.0 mm open2300-1.11 W/m2
14:11 17.5 °C 6.0 °C 1014.8 hPa NNW 22 km/h 39.9 km/h 47 % 0.0 mm open2300-1.11 W/m2
15:11 17.8 °C 5.9 °C 1014.4 hPa NW 20.3 km/h 46.3 km/h 46 % 0.0 mm open2300-1.11 W/m2
17:11 17.6 °C 5.1 °C 1013.1 hPa NNW 52 km/h 52 km/h 44 % 0.0 mm open2300-1.11 W/m2
18:11 17.0 °C 4.9 °C 1013.4 hPa North 36.5 km/h 42.2 km/h 45 % 0.0 mm open2300-1.11 W/m2
19:11 16.4 °C 5.0 °C 1013.1 hPa North 43.5 km/h 64.2 km/h 47 % 0.0 mm open2300-1.11 W/m2
20:12 15.8 °C 5.4 °C 1014.1 hPa North 38.8 km/h 76.4 km/h 50 % 0.0 mm open2300-1.11 W/m2
21:11 15.3 °C 5.2 °C 1013.1 hPa NW 42.2 km/h 84.6 km/h 51 % 0.0 mm open2300-1.11 W/m2
22:11 15.5 °C 4.5 °C 1013.1 hPa NNE 20.9 km/h 59.1 km/h 48 % 0.0 mm open2300-1.11 W/m2
23:11 15.5 °C 4.8 °C 1013.4 hPa NW 39.4 km/h 71.1 km/h 49 % 0.0 mm open2300-1.11 W/m2
Observations météo à CASSIS
WU-History script by Weather Underground - 1 mb